sensor_id;sensor_type;location;lat;lon;timestamp;pressure;altitude;pressure_sealevel;temperature;humidity
45525;BME280;31437;58.350;13.828;2022-07-26T00:00:09;98683.53;;;15.07;100.00
45525;BME280;31437;58.350;13.828;2022-07-26T00:02:36;98679.38;;;15.04;100.00
45525;BME280;31437;58.350;13.828;2022-07-26T00:05:02;98679.69;;;15.01;100.00
45525;BME280;31437;58.350;13.828;2022-07-26T00:07:27;98673.88;;;14.97;100.00
45525;BME280;31437;58.350;13.828;2022-07-26T00:09:52;98682.75;;;14.96;100.00
45525;BME280;31437;58.350;13.828;2022-07-26T00:12:18;98678.59;;;14.94;100.00
45525;BME280;31437;58.350;13.828;2022-07-26T00:14:43;98678.75;;;14.92;100.00
45525;BME280;31437;58.350;13.828;2022-07-26T00:17:08;98680.69;;;14.90;100.00
45525;BME280;31437;58.350;13.828;2022-07-26T00:19:34;98683.50;;;14.89;100.00
45525;BME280;31437;58.350;13.828;2022-07-26T00:21:59;98672.25;;;14.87;100.00
45525;BME280;31437;58.350;13.828;2022-07-26T00:24:42;98675.19;;;14.84;100.00
45525;BME280;31437;58.350;13.828;2022-07-26T00:27:08;98678.13;;;14.81;100.00
45525;BME280;31437;58.350;13.828;2022-07-26T00:29:33;98677.41;;;14.79;100.00
45525;BME280;31437;58.350;13.828;2022-07-26T00:31:59;98676.75;;;14.76;100.00
45525;BME280;31437;58.350;13.828;2022-07-26T00:34:24;98673.56;;;14.73;100.00
45525;BME280;31437;58.350;13.828;2022-07-26T00:36:49;98662.47;;;14.69;100.00
45525;BME280;31437;58.350;13.828;2022-07-26T00:39:15;98660.13;;;14.66;100.00
45525;BME280;31437;58.350;13.828;2022-07-26T00:41:40;98651.66;;;14.63;100.00
45525;BME280;31437;58.350;13.828;2022-07-26T00:44:06;98650.97;;;14.61;100.00
45525;BME280;31437;58.350;13.828;2022-07-26T00:46:32;98633.78;;;14.47;100.00
45525;BME280;31437;58.350;13.828;2022-07-26T00:48:57;98651.56;;;14.54;100.00
45525;BME280;31437;58.350;13.828;2022-07-26T00:51:22;98660.47;;;14.53;100.00
45525;BME280;31437;58.350;13.828;2022-07-26T00:53:48;98663.22;;;14.52;100.00
45525;BME280;31437;58.350;13.828;2022-07-26T00:56:14;98666.81;;;14.51;100.00
45525;BME280;31437;58.350;13.828;2022-07-26T00:58:40;98666.13;;;14.49;100.00
45525;BME280;31437;58.350;13.828;2022-07-26T01:01:06;98660.84;;;14.49;100.00
45525;BME280;31437;58.350;13.828;2022-07-26T01:03:31;98663.50;;;14.49;100.00
45525;BME280;31437;58.350;13.828;2022-07-26T01:05:56;98663.50;;;14.49;100.00
45525;BME280;31437;58.350;13.828;2022-07-26T01:08:22;98663.50;;;14.49;100.00
45525;BME280;31437;58.350;13.828;2022-07-26T01:10:48;98661.84;;;14.48;100.00
45525;BME280;31437;58.350;13.828;2022-07-26T01:13:17;98661.97;;;14.46;100.00
45525;BME280;31437;58.350;13.828;2022-07-26T01:15:43;98658.50;;;14.46;100.00
45525;BME280;31437;58.350;13.828;2022-07-26T01:18:08;98662.13;;;14.45;100.00
45525;BME280;31437;58.350;13.828;2022-07-26T01:20:33;98662.13;;;14.45;100.00
45525;BME280;31437;58.350;13.828;2022-07-26T01:22:59;98662.97;;;14.45;100.00
45525;BME280;31437;58.350;13.828;2022-07-26T01:25:31;98659.50;;;14.45;100.00
45525;BME280;31437;58.350;13.828;2022-07-26T01:27:57;98650.06;;;14.42;100.00
45525;BME280;31437;58.350;13.828;2022-07-26T01:30:22;98650.34;;;14.39;100.00
45525;BME280;31437;58.350;13.828;2022-07-26T01:32:47;98636.06;;;14.32;100.00
45525;BME280;31437;58.350;13.828;2022-07-26T01:35:13;98644.72;;;14.24;100.00
45525;BME280;31437;58.350;13.828;2022-07-26T01:37:38;98643.59;;;14.17;100.00
45525;BME280;31437;58.350;13.828;2022-07-26T01:40:03;98638.38;;;14.07;100.00
45525;BME280;31437;58.350;13.828;2022-07-26T01:42:29;98636.88;;;13.95;100.00
45525;BME280;31437;58.350;13.828;2022-07-26T01:44:54;98630.94;;;13.83;100.00
45525;BME280;31437;58.350;13.828;2022-07-26T01:47:19;98630.09;;;13.73;100.00
45525;BME280;31437;58.350;13.828;2022-07-26T01:49:45;98622.38;;;13.62;100.00
45525;BME280;31437;58.350;13.828;2022-07-26T01:52:10;98618.78;;;13.53;100.00
45525;BME280;31437;58.350;13.828;2022-07-26T01:54:35;98621.25;;;13.45;100.00
45525;BME280;31437;58.350;13.828;2022-07-26T01:57:00;98621.94;;;13.37;100.00
45525;BME280;31437;58.350;13.828;2022-07-26T01:59:26;98619.03;;;13.31;100.00
45525;BME280;31437;58.350;13.828;2022-07-26T02:01:51;98610.97;;;13.23;100.00
45525;BME280;31437;58.350;13.828;2022-07-26T02:04:16;98615.78;;;13.17;100.00
45525;BME280;31437;58.350;13.828;2022-07-26T02:07:00;98617.06;;;13.13;100.00
45525;BME280;31437;58.350;13.828;2022-07-26T02:09:25;98617.22;;;13.12;100.00
45525;BME280;31437;58.350;13.828;2022-07-26T02:11:51;98619.13;;;13.10;100.00
45525;BME280;31437;58.350;13.828;2022-07-26T02:14:16;98621.06;;;13.08;100.00
45525;BME280;31437;58.350;13.828;2022-07-26T02:16:41;98622.16;;;13.05;100.00
45525;BME280;31437;58.350;13.828;2022-07-26T02:19:07;98617.72;;;13.06;100.00
45525;BME280;31437;58.350;13.828;2022-07-26T02:21:33;98622.88;;;13.07;100.00
45525;BME280;31437;58.350;13.828;2022-07-26T02:23:58;98626.31;;;13.08;100.00
45525;BME280;31437;58.350;13.828;2022-07-26T02:26:23;98611.94;;;13.12;100.00
45525;BME280;31437;58.350;13.828;2022-07-26T02:28:49;98613.44;;;13.14;100.00
45525;BME280;31437;58.350;13.828;2022-07-26T02:31:14;98615.13;;;13.15;100.00
45525;BME280;31437;58.350;13.828;2022-07-26T02:33:39;98613.31;;;13.16;100.00
45525;BME280;31437;58.350;13.828;2022-07-26T02:36:04;98618.44;;;13.17;100.00
45525;BME280;31437;58.350;13.828;2022-07-26T02:38:30;98611.25;;;13.19;100.00
45525;BME280;31437;58.350;13.828;2022-07-26T02:40:55;98605.84;;;13.21;100.00
45525;BME280;31437;58.350;13.828;2022-07-26T02:43:20;98602.13;;;13.24;100.00
45525;BME280;31437;58.350;13.828;2022-07-26T02:45:45;98594.22;;;13.24;100.00
45525;BME280;31437;58.350;13.828;2022-07-26T02:48:11;98596.72;;;13.25;100.00
45525;BME280;31437;58.350;13.828;2022-07-26T02:50:36;98605.44;;;13.26;100.00
45525;BME280;31437;58.350;13.828;2022-07-26T02:53:01;98587.84;;;13.26;100.00
45525;BME280;31437;58.350;13.828;2022-07-26T02:55:27;98589.38;;;13.29;100.00
45525;BME280;31437;58.350;13.828;2022-07-26T02:57:52;98586.63;;;13.30;100.00
45525;BME280;31437;58.350;13.828;2022-07-26T03:00:18;98577.72;;;13.31;100.00
45525;BME280;31437;58.350;13.828;2022-07-26T03:02:44;98581.19;;;13.32;100.00
45525;BME280;31437;58.350;13.828;2022-07-26T03:05:09;98581.06;;;13.33;100.00
45525;BME280;31437;58.350;13.828;2022-07-26T03:07:35;98573.88;;;13.35;100.00
45525;BME280;31437;58.350;13.828;2022-07-26T03:10:00;98568.44;;;13.37;100.00
45525;BME280;31437;58.350;13.828;2022-07-26T03:12:26;98566.50;;;13.39;100.00
45525;BME280;31437;58.350;13.828;2022-07-26T03:14:51;98562.63;;;13.43;100.00
45525;BME280;31437;58.350;13.828;2022-07-26T03:17:16;98565.13;;;13.45;100.00
45525;BME280;31437;58.350;13.828;2022-07-26T03:19:42;98557.75;;;13.48;100.00
45525;BME280;31437;58.350;13.828;2022-07-26T03:22:07;98563.56;;;13.52;100.00
45525;BME280;31437;58.350;13.828;2022-07-26T03:24:32;98560.53;;;13.56;100.00
45525;BME280;31437;58.350;13.828;2022-07-26T03:26:58;98569.69;;;13.62;100.00
45525;BME280;31437;58.350;13.828;2022-07-26T03:29:23;98564.66;;;13.69;100.00
45525;BME280;31437;58.350;13.828;2022-07-26T03:31:49;98576.97;;;13.78;100.00
45525;BME280;31437;58.350;13.828;2022-07-26T03:34:14;98572.66;;;13.86;100.00
45525;BME280;31437;58.350;13.828;2022-07-26T03:36:39;98569.69;;;13.99;100.00
45525;BME280;31437;58.350;13.828;2022-07-26T03:39:07;98577.31;;;14.12;100.00
45525;BME280;31437;58.350;13.828;2022-07-26T03:41:32;98568.22;;;14.24;100.00
45525;BME280;31437;58.350;13.828;2022-07-26T03:43:57;98566.88;;;14.38;100.00
45525;BME280;31437;58.350;13.828;2022-07-26T03:46:22;98574.22;;;14.54;100.00
45525;BME280;31437;58.350;13.828;2022-07-26T03:48:48;98566.94;;;14.66;100.00
45525;BME280;31437;58.350;13.828;2022-07-26T03:51:13;98577.28;;;14.77;100.00
45525;BME280;31437;58.350;13.828;2022-07-26T03:53:38;98572.47;;;14.90;100.00
45525;BME280;31437;58.350;13.828;2022-07-26T03:56:03;98564.03;;;15.05;100.00
45525;BME280;31437;58.350;13.828;2022-07-26T03:58:47;98572.25;;;15.19;100.00
45525;BME280;31437;58.350;13.828;2022-07-26T04:01:12;98574.94;;;15.45;100.00
45525;BME280;31437;58.350;13.828;2022-07-26T04:03:38;98581.63;;;15.58;100.00
45525;BME280;31437;58.350;13.828;2022-07-26T04:06:03;98584.44;;;15.56;100.00
45525;BME280;31437;58.350;13.828;2022-07-26T04:08:28;98580.75;;;15.49;100.00
45525;BME280;31437;58.350;13.828;2022-07-26T04:10:54;98591.78;;;15.44;100.00
45525;BME280;31437;58.350;13.828;2022-07-26T04:13:19;98585.59;;;15.36;100.00
45525;BME280;31437;58.350;13.828;2022-07-26T04:15:44;98590.50;;;15.31;100.00
45525;BME280;31437;58.350;13.828;2022-07-26T04:18:10;98587.66;;;15.24;100.00
45525;BME280;31437;58.350;13.828;2022-07-26T04:20:35;98585.44;;;15.19;100.00
45525;BME280;31437;58.350;13.828;2022-07-26T04:23:00;98580.47;;;15.16;100.00
45525;BME280;31437;58.350;13.828;2022-07-26T04:25:26;98582.59;;;15.13;100.00
45525;BME280;31437;58.350;13.828;2022-07-26T04:27:51;98580.78;;;15.13;100.00
45525;BME280;31437;58.350;13.828;2022-07-26T04:30:16;98578.13;;;15.13;100.00
45525;BME280;31437;58.350;13.828;2022-07-26T04:32:45;98576.31;;;15.14;100.00
45525;BME280;31437;58.350;13.828;2022-07-26T04:35:10;98578.81;;;15.15;100.00
45525;BME280;31437;58.350;13.828;2022-07-26T04:37:42;98581.47;;;15.15;100.00
45525;BME280;31437;58.350;13.828;2022-07-26T04:40:11;98578.81;;;15.15;100.00
45525;BME280;31437;58.350;13.828;2022-07-26T04:42:36;98591.03;;;15.16;100.00
45525;BME280;31437;58.350;13.828;2022-07-26T04:45:05;98586.75;;;15.15;100.00
45525;BME280;31437;58.350;13.828;2022-07-26T04:47:30;98586.75;;;15.15;100.00
45525;BME280;31437;58.350;13.828;2022-07-26T04:49:55;98596.47;;;15.15;100.00
45525;BME280;31437;58.350;13.828;2022-07-26T04:52:21;98591.72;;;15.18;100.00
45525;BME280;31437;58.350;13.828;2022-07-26T04:54:46;98596.09;;;15.28;100.00
45525;BME280;31437;58.350;13.828;2022-07-26T04:57:11;98590.59;;;15.39;100.00
45525;BME280;31437;58.350;13.828;2022-07-26T04:59:37;98596.91;;;15.46;100.00
45525;BME280;31437;58.350;13.828;2022-07-26T05:02:02;98597.81;;;15.55;100.00
45525;BME280;31437;58.350;13.828;2022-07-26T05:04:27;98597.56;;;15.66;100.00
45525;BME280;31437;58.350;13.828;2022-07-26T05:06:52;98590.56;;;15.75;100.00
45525;BME280;31437;58.350;13.828;2022-07-26T05:09:18;98596.56;;;15.85;100.00
45525;BME280;31437;58.350;13.828;2022-07-26T05:11:43;98601.91;;;15.93;100.00
45525;BME280;31437;58.350;13.828;2022-07-26T05:14:08;98593.28;;;15.91;100.00
45525;BME280;31437;58.350;13.828;2022-07-26T05:16:33;98600.25;;;15.92;100.00
45525;BME280;31437;58.350;13.828;2022-07-26T05:18:59;98593.66;;;15.96;100.00
45525;BME280;31437;58.350;13.828;2022-07-26T05:21:24;98591.22;;;16.03;100.00
45525;BME280;31437;58.350;13.828;2022-07-26T05:23:49;98589.75;;;16.08;100.00
45525;BME280;31437;58.350;13.828;2022-07-26T05:26:14;98588.31;;;16.48;100.00
45525;BME280;31437;58.350;13.828;2022-07-26T05:28:40;98590.13;;;16.90;100.00
45525;BME280;31437;58.350;13.828;2022-07-26T05:31:05;98587.34;;;17.08;100.00
45525;BME280;31437;58.350;13.828;2022-07-26T05:33:30;98583.38;;;17.04;100.00
45525;BME280;31437;58.350;13.828;2022-07-26T05:35:55;98593.78;;;16.89;100.00
45525;BME280;31437;58.350;13.828;2022-07-26T05:38:21;98588.78;;;16.78;100.00
45525;BME280;31437;58.350;13.828;2022-07-26T05:40:46;98580.56;;;16.55;100.00
45525;BME280;31437;58.350;13.828;2022-07-26T05:43:11;98579.81;;;16.37;100.00
45525;BME280;31437;58.350;13.828;2022-07-26T05:45:37;98576.13;;;16.21;100.00
45525;BME280;31437;58.350;13.828;2022-07-26T05:48:02;98574.56;;;16.10;100.00
45525;BME280;31437;58.350;13.828;2022-07-26T05:50:27;98568.34;;;15.94;100.00
45525;BME280;31437;58.350;13.828;2022-07-26T05:52:53;98565.81;;;15.84;100.00
45525;BME280;31437;58.350;13.828;2022-07-26T05:55:18;98572.81;;;15.93;100.00
45525;BME280;31437;58.350;13.828;2022-07-26T05:57:43;98558.25;;;15.89;100.00
45525;BME280;31437;58.350;13.828;2022-07-26T06:00:11;98561.38;;;15.84;100.00
45525;BME280;31437;58.350;13.828;2022-07-26T06:02:37;98553.22;;;15.78;100.00
45525;BME280;31437;58.350;13.828;2022-07-26T06:05:02;98560.84;;;15.81;100.00
45525;BME280;31437;58.350;13.828;2022-07-26T06:07:28;98556.06;;;16.10;100.00
45525;BME280;31437;58.350;13.828;2022-07-26T06:09:53;98559.97;;;16.41;100.00
45525;BME280;31437;58.350;13.828;2022-07-26T06:12:18;98558.09;;;16.67;100.00
45525;BME280;31437;58.350;13.828;2022-07-26T06:14:44;98548.78;;;17.30;100.00
45525;BME280;31437;58.350;13.828;2022-07-26T06:17:09;98554.38;;;17.76;100.00
45525;BME280;31437;58.350;13.828;2022-07-26T06:19:34;98565.31;;;18.45;100.00
45525;BME280;31437;58.350;13.828;2022-07-26T06:22:00;98554.69;;;19.08;100.00
45525;BME280;31437;58.350;13.828;2022-07-26T06:24:25;98537.53;;;19.18;100.00
45525;BME280;31437;58.350;13.828;2022-07-26T06:26:50;98514.38;;;19.04;100.00
45525;BME280;31437;58.350;13.828;2022-07-26T06:29:17;98502.50;;;18.92;100.00
45525;BME280;31437;58.350;13.828;2022-07-26T06:31:42;98489.75;;;18.87;100.00
45525;BME280;31437;58.350;13.828;2022-07-26T06:34:08;98486.34;;;19.39;100.00
45525;BME280;31437;58.350;13.828;2022-07-26T06:36:33;98467.06;;;19.37;100.00
45525;BME280;31437;58.350;13.828;2022-07-26T06:38:58;98453.56;;;19.09;100.00
45525;BME280;31437;58.350;13.828;2022-07-26T06:41:24;98436.78;;;18.63;100.00
45525;BME280;31437;58.350;13.828;2022-07-26T06:43:49;98438.03;;;18.21;100.00
45525;BME280;31437;58.350;13.828;2022-07-26T06:46:14;98436.38;;;17.72;100.00
45525;BME280;31437;58.350;13.828;2022-07-26T06:48:41;98441.47;;;17.26;100.00
45525;BME280;31437;58.350;13.828;2022-07-26T06:51:06;98440.16;;;17.06;100.00
45525;BME280;31437;58.350;13.828;2022-07-26T06:53:34;98447.38;;;17.53;100.00
45525;BME280;31437;58.350;13.828;2022-07-26T06:55:59;98465.13;;;18.39;100.00
45525;BME280;31437;58.350;13.828;2022-07-26T06:58:24;98457.75;;;18.80;100.00
45525;BME280;31437;58.350;13.828;2022-07-26T07:00:49;98441.84;;;18.72;100.00
45525;BME280;31437;58.350;13.828;2022-07-26T07:03:15;98434.69;;;18.50;100.00
45525;BME280;31437;58.350;13.828;2022-07-26T07:05:41;98423.66;;;18.15;100.00
45525;BME280;31437;58.350;13.828;2022-07-26T07:08:06;98418.19;;;17.61;100.00
45525;BME280;31437;58.350;13.828;2022-07-26T07:10:31;98426.22;;;17.20;100.00
45525;BME280;31437;58.350;13.828;2022-07-26T07:12:56;98426.59;;;16.92;100.00
45525;BME280;31437;58.350;13.828;2022-07-26T07:15:22;98424.09;;;16.74;100.00
45525;BME280;31437;58.350;13.828;2022-07-26T07:17:47;98430.50;;;16.55;100.00
45525;BME280;31437;58.350;13.828;2022-07-26T07:20:12;98426.50;;;16.27;100.00
45525;BME280;31437;58.350;13.828;2022-07-26T07:22:38;98433.88;;;16.07;100.00
45525;BME280;31437;58.350;13.828;2022-07-26T07:25:03;98432.19;;;15.89;100.00
45525;BME280;31437;58.350;13.828;2022-07-26T07:27:29;98442.75;;;15.89;100.00
45525;BME280;31437;58.350;13.828;2022-07-26T07:29:54;98454.00;;;16.00;100.00
45525;BME280;31437;58.350;13.828;2022-07-26T07:32:19;98451.34;;;16.42;100.00
45525;BME280;31437;58.350;13.828;2022-07-26T07:34:45;98439.28;;;16.64;100.00
45525;BME280;31437;58.350;13.828;2022-07-26T07:37:10;98429.38;;;16.66;100.00
45525;BME280;31437;58.350;13.828;2022-07-26T07:39:39;98431.38;;;16.97;100.00
45525;BME280;31437;58.350;13.828;2022-07-26T07:42:04;98422.28;;;17.08;100.00
45525;BME280;31437;58.350;13.828;2022-07-26T07:44:29;98423.59;;;17.12;100.00
45525;BME280;31437;58.350;13.828;2022-07-26T07:46:55;98415.63;;;17.12;100.00
45525;BME280;31437;58.350;13.828;2022-07-26T07:49:20;98412.16;;;17.36;100.00
45525;BME280;31437;58.350;13.828;2022-07-26T07:51:46;98402.69;;;17.41;100.00
45525;BME280;31437;58.350;13.828;2022-07-26T07:54:11;98395.91;;;17.39;100.00
45525;BME280;31437;58.350;13.828;2022-07-26T07:56:37;98389.13;;;17.84;100.00
45525;BME280;31437;58.350;13.828;2022-07-26T07:59:03;98390.94;;;18.14;100.00
45525;BME280;31437;58.350;13.828;2022-07-26T08:01:28;98390.53;;;18.57;100.00
45525;BME280;31437;58.350;13.828;2022-07-26T08:03:53;98376.47;;;18.94;100.00
45525;BME280;31437;58.350;13.828;2022-07-26T08:06:19;98372.25;;;19.15;100.00
45525;BME280;31437;58.350;13.828;2022-07-26T08:08:44;98367.28;;;18.97;100.00
45525;BME280;31437;58.350;13.828;2022-07-26T08:11:09;98371.22;;;18.63;100.00
45525;BME280;31437;58.350;13.828;2022-07-26T08:13:35;98353.53;;;18.32;100.00
45525;BME280;31437;58.350;13.828;2022-07-26T08:16:00;98368.00;;;17.99;100.00
45525;BME280;31437;58.350;13.828;2022-07-26T08:18:26;98361.66;;;17.68;100.00
45525;BME280;31437;58.350;13.828;2022-07-26T08:20:51;98363.06;;;17.96;100.00
45525;BME280;31437;58.350;13.828;2022-07-26T08:23:17;98363.63;;;18.06;100.00
45525;BME280;31437;58.350;13.828;2022-07-26T08:25:43;98369.91;;;18.13;100.00
45525;BME280;31437;58.350;13.828;2022-07-26T08:28:08;98367.00;;;18.00;100.00
45525;BME280;31437;58.350;13.828;2022-07-26T08:30:33;98364.84;;;18.26;100.00
45525;BME280;31437;58.350;13.828;2022-07-26T08:32:59;98372.03;;;18.41;100.00
45525;BME280;31437;58.350;13.828;2022-07-26T08:35:24;98355.44;;;18.61;100.00
45525;BME280;31437;58.350;13.828;2022-07-26T08:37:50;98363.41;;;18.61;100.00
45525;BME280;31437;58.350;13.828;2022-07-26T08:40:15;98364.09;;;18.41;100.00
45525;BME280;31437;58.350;13.828;2022-07-26T08:42:47;98355.13;;;18.42;100.00
45525;BME280;31437;58.350;13.828;2022-07-26T08:45:13;98357.66;;;18.12;100.00
45525;BME280;31437;58.350;13.828;2022-07-26T08:47:44;98359.16;;;17.83;100.00
45525;BME280;31437;58.350;13.828;2022-07-26T08:50:09;98367.66;;;17.62;100.00
45525;BME280;31437;58.350;13.828;2022-07-26T08:52:37;98372.63;;;17.65;100.00
45525;BME280;31437;58.350;13.828;2022-07-26T08:55:02;98360.31;;;17.81;100.00
45525;BME280;31437;58.350;13.828;2022-07-26T08:57:27;98367.50;;;18.03;100.00
45525;BME280;31437;58.350;13.828;2022-07-26T09:02:40;98365.56;;;18.66;100.00
45525;BME280;31437;58.350;13.828;2022-07-26T09:05:06;98362.34;;;18.94;100.00
45525;BME280;31437;58.350;13.828;2022-07-26T09:07:32;98353.03;;;19.27;100.00
45525;BME280;31437;58.350;13.828;2022-07-26T09:10:03;98345.31;;;19.62;100.00
45525;BME280;31437;58.350;13.828;2022-07-26T09:12:29;98335.66;;;19.91;100.00
45525;BME280;31437;58.350;13.828;2022-07-26T09:14:55;98329.84;;;20.02;100.00
45525;BME280;31437;58.350;13.828;2022-07-26T09:17:21;98344.38;;;20.21;100.00
45525;BME280;31437;58.350;13.828;2022-07-26T09:20:04;98342.41;;;20.30;100.00
45525;BME280;31437;58.350;13.828;2022-07-26T09:22:30;98329.91;;;20.09;100.00
45525;BME280;31437;58.350;13.828;2022-07-26T09:24:56;98333.63;;;19.93;100.00
45525;BME280;31437;58.350;13.828;2022-07-26T09:27:21;98329.03;;;20.02;100.00
45525;BME280;31437;58.350;13.828;2022-07-26T09:29:49;98340.09;;;20.05;100.00
45525;BME280;31437;58.350;13.828;2022-07-26T09:32:17;98335.44;;;20.07;100.00
45525;BME280;31437;58.350;13.828;2022-07-26T09:34:52;98340.63;;;20.37;100.00
45525;BME280;31437;58.350;13.828;2022-07-26T09:37:18;98340.94;;;20.49;100.00
45525;BME280;31437;58.350;13.828;2022-07-26T09:39:57;98338.84;;;20.44;100.00
45525;BME280;31437;58.350;13.828;2022-07-26T09:42:23;98342.75;;;20.41;100.00
45525;BME280;31437;58.350;13.828;2022-07-26T09:44:49;98342.41;;;20.30;100.00
45525;BME280;31437;58.350;13.828;2022-07-26T09:47:14;98345.19;;;20.00;100.00
45525;BME280;31437;58.350;13.828;2022-07-26T09:49:40;98333.25;;;19.96;100.00
45525;BME280;31437;58.350;13.828;2022-07-26T09:52:12;98348.09;;;20.05;100.00
45525;BME280;31437;58.350;13.828;2022-07-26T09:54:38;98341.75;;;19.70;100.00
45525;BME280;31437;58.350;13.828;2022-07-26T09:57:05;98356.94;;;19.61;100.00
45525;BME280;31437;58.350;13.828;2022-07-26T09:59:31;98360.63;;;19.45;100.00
45525;BME280;31437;58.350;13.828;2022-07-26T10:01:57;98355.69;;;19.27;100.00
45525;BME280;31437;58.350;13.828;2022-07-26T10:04:23;98363.94;;;19.18;100.00
45525;BME280;31437;58.350;13.828;2022-07-26T10:06:49;98355.84;;;19.11;100.00
45525;BME280;31437;58.350;13.828;2022-07-26T10:09:14;98361.59;;;19.00;100.00
45525;BME280;31437;58.350;13.828;2022-07-26T10:16:49;98378.13;;;18.95;100.00
45525;BME280;31437;58.350;13.828;2022-07-26T10:19:36;98377.00;;;18.90;100.00
45525;BME280;31437;58.350;13.828;2022-07-26T10:24:43;98378.88;;;18.58;100.00
45525;BME280;31437;58.350;13.828;2022-07-26T10:27:24;98382.75;;;18.32;100.00
45525;BME280;31437;58.350;13.828;2022-07-26T10:30:16;98379.91;;;18.03;100.00
45525;BME280;31437;58.350;13.828;2022-07-26T10:32:39;98384.53;;;17.69;100.00
45525;BME280;31437;58.350;13.828;2022-07-26T10:38:08;98384.88;;;17.58;100.00
45525;BME280;31437;58.350;13.828;2022-07-26T10:40:34;98389.22;;;17.51;100.00
45525;BME280;31437;58.350;13.828;2022-07-26T10:45:31;98393.72;;;17.42;100.00
45525;BME280;31437;58.350;13.828;2022-07-26T10:48:10;98408.75;;;17.58;100.00
45525;BME280;31437;58.350;13.828;2022-07-26T10:50:36;98403.06;;;17.86;100.00
45525;BME280;31437;58.350;13.828;2022-07-26T10:53:02;98382.06;;;18.07;100.00
45525;BME280;31437;58.350;13.828;2022-07-26T10:55:27;98391.81;;;18.15;100.00
45525;BME280;31437;58.350;13.828;2022-07-26T10:57:52;98404.84;;;18.25;100.00
45525;BME280;31437;58.350;13.828;2022-07-26T11:00:22;98392.75;;;18.22;100.00
45525;BME280;31437;58.350;13.828;2022-07-26T11:02:52;98401.75;;;18.13;100.00
45525;BME280;31437;58.350;13.828;2022-07-26T11:05:18;98400.22;;;18.19;100.00
45525;BME280;31437;58.350;13.828;2022-07-26T11:10:21;98407.03;;;18.44;100.00
45525;BME280;31437;58.350;13.828;2022-07-26T11:12:47;98415.97;;;18.20;100.00
45525;BME280;31437;58.350;13.828;2022-07-26T11:15:14;98416.31;;;17.86;100.00
45525;BME280;31437;58.350;13.828;2022-07-26T11:17:40;98429.78;;;17.68;100.00
45525;BME280;31437;58.350;13.828;2022-07-26T11:20:05;98437.06;;;17.66;100.00
45525;BME280;31437;58.350;13.828;2022-07-26T11:22:31;98423.16;;;17.64;100.00
45525;BME280;31437;58.350;13.828;2022-07-26T11:24:57;98434.81;;;17.94;100.00
45525;BME280;31437;58.350;13.828;2022-07-26T11:27:22;98429.81;;;18.07;100.00
45525;BME280;31437;58.350;13.828;2022-07-26T11:29:47;98434.50;;;17.97;100.00
45525;BME280;31437;58.350;13.828;2022-07-26T11:34:41;98442.03;;;17.85;100.00
45525;BME280;31437;58.350;13.828;2022-07-26T11:37:08;98438.22;;;17.71;100.00
45525;BME280;31437;58.350;13.828;2022-07-26T11:39:34;98435.03;;;17.76;100.00
45525;BME280;31437;58.350;13.828;2022-07-26T11:42:00;98436.19;;;17.90;100.00
45525;BME280;31437;58.350;13.828;2022-07-26T11:44:27;98443.56;;;18.03;100.00
45525;BME280;31437;58.350;13.828;2022-07-26T11:46:52;98442.22;;;18.38;100.00
45525;BME280;31437;58.350;13.828;2022-07-26T11:49:24;98433.47;;;18.60;100.00
45525;BME280;31437;58.350;13.828;2022-07-26T11:52:08;98436.31;;;18.82;100.00
45525;BME280;31437;58.350;13.828;2022-07-26T11:54:48;98434.50;;;18.82;100.00
45525;BME280;31437;58.350;13.828;2022-07-26T11:57:13;98433.25;;;18.93;100.00
45525;BME280;31437;58.350;13.828;2022-07-26T11:59:38;98436.44;;;18.89;100.00
45525;BME280;31437;58.350;13.828;2022-07-26T12:02:05;98428.19;;;18.83;100.00
45525;BME280;31437;58.350;13.828;2022-07-26T12:04:32;98426.25;;;18.77;100.00
45525;BME280;31437;58.350;13.828;2022-07-26T12:06:58;98423.44;;;18.71;100.00
45525;BME280;31437;58.350;13.828;2022-07-26T12:09:27;98425.22;;;18.78;100.00
45525;BME280;31437;58.350;13.828;2022-07-26T12:11:53;98423.03;;;18.82;100.00
45525;BME280;31437;58.350;13.828;2022-07-26T12:14:54;98423.44;;;18.71;100.00
45525;BME280;31437;58.350;13.828;2022-07-26T12:17:14;98424.50;;;18.61;100.00
45525;BME280;31437;58.350;13.828;2022-07-26T12:19:40;98416.03;;;18.35;100.00
45525;BME280;31437;58.350;13.828;2022-07-26T12:27:03;98439.53;;;17.84;100.00
45525;BME280;31437;58.350;13.828;2022-07-26T12:29:29;98441.50;;;17.82;100.00
45525;BME280;31437;58.350;13.828;2022-07-26T12:32:06;98434.91;;;17.78;100.00
45525;BME280;31437;58.350;13.828;2022-07-26T12:34:33;98434.06;;;17.69;100.00
45525;BME280;31437;58.350;13.828;2022-07-26T12:37:08;98433.28;;;17.60;100.00
45525;BME280;31437;58.350;13.828;2022-07-26T12:39:34;98432.78;;;17.57;100.00
45525;BME280;31437;58.350;13.828;2022-07-26T12:42:18;98429.94;;;17.66;100.00
45525;BME280;31437;58.350;13.828;2022-07-26T12:44:44;98434.56;;;17.81;100.00
45525;BME280;31437;58.350;13.828;2022-07-26T12:47:09;98425.56;;;17.90;100.00
45525;BME280;31437;58.350;13.828;2022-07-26T12:49:35;98428.31;;;18.05;100.00
45525;BME280;31437;58.350;13.828;2022-07-26T12:52:00;98412.06;;;18.08;100.00
45525;BME280;31437;58.350;13.828;2022-07-26T12:54:25;98420.13;;;18.14;100.00
45525;BME280;31437;58.350;13.828;2022-07-26T12:56:51;98409.31;;;18.24;100.00
45525;BME280;31437;58.350;13.828;2022-07-26T12:59:16;98400.75;;;18.14;100.00
45525;BME280;31437;58.350;13.828;2022-07-26T13:01:42;98401.53;;;18.23;100.00